Time;durP1;ratioP1;P1;durP2;ratioP2;P2;SDS_P1;SDS_P2;PMS_P1;PMS_P2;Temp;Humidity;BMP_temperature;BMP_pressure;BME280_temperature;BME280_humidity;BME280_pressure;Samples;Min_cycle;Max_cycle;Signal;HPM_P1;HPM_P2
2021/04/17 00:01:38;;;;;;;12.57;9.55;;;5.20;65.40;;;3.27;63.54;96454.84;4960667;28;20493;-68
2021/04/17 00:04:04;;;;;;;12.45;9.18;;;5.20;65.40;;;3.26;62.95;96454.03;4964250;28;20114;-68
2021/04/17 00:06:31;;;;;;;12.38;9.10;;;5.20;65.40;;;3.25;63.57;96447.19;4978035;28;20109;-69
2021/04/17 00:08:56;;;;;;;9.60;8.27;;;5.20;65.30;;;3.22;63.22;96447.47;4968223;28;20034;-68
2021/04/17 00:11:22;;;;;;;9.98;8.15;;;5.10;65.20;;;3.20;63.75;96445.97;4967314;28;20138;-68
2021/04/17 00:13:48;;;;;;;12.48;9.43;;;5.10;65.30;;;3.17;62.93;96443.59;4967086;28;20073;-69
2021/04/17 00:16:16;;;;;;;12.02;9.70;;;5.10;65.40;;;3.13;63.22;96448.25;4957561;28;20059;-69
2021/04/17 00:18:41;;;;;;;12.00;9.73;;;5.00;65.40;;;3.08;63.85;96435.66;4960887;28;20042;-68
2021/04/17 00:21:07;;;;;;;12.48;9.85;;;5.00;65.60;;;3.04;63.03;96434.31;4964864;28;20038;-69
2021/04/17 00:23:33;;;;;;;12.50;9.30;;;5.00;65.60;;;3.02;63.86;96431.03;4963765;28;20038;-68
2021/04/17 00:25:59;;;;;;;11.65;9.30;;;4.90;65.70;;;3.00;63.17;96430.34;4969029;28;20067;-68
2021/04/17 00:28:25;;;;;;;14.30;10.27;;;4.90;65.80;;;2.98;63.76;96424.44;4967628;28;20050;-68
2021/04/17 00:30:51;;;;;;;12.63;9.77;;;4.90;66.00;;;2.94;63.93;96423.09;4967662;28;20125;-68
2021/04/17 00:33:16;;;;;;;13.25;10.60;;;4.80;66.10;;;2.91;64.22;96425.91;4967816;28;20042;-68
2021/04/17 00:35:42;;;;;;;14.27;10.40;;;4.80;66.20;;;2.88;63.82;96426.19;4970128;28;20039;-68
2021/04/17 00:38:08;;;;;;;14.07;10.68;;;4.80;66.20;;;2.85;64.23;96423.03;4962320;28;20041;-68
2021/04/17 00:40:34;;;;;;;13.75;10.20;;;4.80;66.40;;;2.81;63.82;96417.28;4965342;28;20066;-69
2021/04/17 00:42:59;;;;;;;13.90;10.15;;;4.70;66.40;;;2.79;64.34;96418.38;4967625;28;20030;-68
2021/04/17 00:45:25;;;;;;;14.75;10.90;;;4.70;66.40;;;2.75;64.58;96410.03;4969421;28;20077;-68
2021/04/17 00:47:51;;;;;;;13.63;10.02;;;4.60;66.40;;;2.71;64.67;96413.84;4967436;28;20046;-68
2021/04/17 00:50:17;;;;;;;12.40;10.27;;;4.60;66.90;;;2.67;64.38;96410.69;4960571;28;20035;-68
2021/04/17 00:52:43;;;;;;;14.77;10.50;;;4.50;67.00;;;2.60;64.26;96409.56;4961830;28;20031;-68
2021/04/17 00:55:10;;;;;;;12.23;9.85;;;4.40;67.40;;;2.57;64.67;96414.22;4965651;28;20058;-68
2021/04/17 00:57:35;;;;;;;13.48;10.13;;;4.40;67.60;;;2.54;65.35;96409.28;4969778;28;20053;-68
2021/04/17 01:00:05;;;;;;;11.18;9.57;;;4.30;67.80;;;2.52;65.10;96409.44;4962380;28;20046;-68
2021/04/17 01:02:34;;;;;;;12.95;10.13;;;4.40;68.00;;;2.51;65.89;96399.19;4967831;28;20039;-68
2021/04/17 01:05:00;;;;;;;13.05;10.50;;;4.40;67.80;;;2.48;65.31;96410.63;4981423;28;20043;-68
2021/04/17 01:07:25;;;;;;;13.00;10.57;;;4.30;67.90;;;2.46;65.11;96399.53;4961752;28;20065;-69
2021/04/17 01:10:21;;;;;;;13.25;11.18;;;4.30;67.90;;;2.44;67.44;96404.88;4957190;28;20038;-69
2021/04/17 01:12:51;;;;;;;13.65;11.35;;;4.20;68.20;;;2.42;66.21;96406.78;4960332;28;20061;-69
2021/04/17 01:15:17;;;;;;;14.85;10.90;;;4.30;68.20;;;2.40;65.70;96400.09;4954240;28;20043;-69
2021/04/17 01:17:45;;;;;;;15.38;10.88;;;4.20;68.00;;;2.38;66.03;96404.59;4966215;28;20333;-71
2021/04/17 01:20:19;;;;;;;15.27;11.63;;;4.20;68.10;;;2.36;66.69;96402.13;4959493;28;20122;-69
2021/04/17 01:23:06;;;;;;;15.05;11.55;;;4.20;68.20;;;2.33;67.43;96402.38;4963661;28;20073;-69
2021/04/17 01:25:59;;;;;;;15.55;11.63;;;4.20;68.20;;;2.33;68.47;96404.16;4949213;28;20503;-71
2021/04/17 01:28:26;;;;;;;15.98;11.95;;;4.20;68.30;;;2.31;66.00;96404.28;4961259;28;20530;-69
2021/04/17 01:30:53;;;;;;;15.93;11.73;;;4.20;68.30;;;2.31;66.01;96401.69;4947628;28;20653;-69
2021/04/17 01:33:22;;;;;;;14.73;11.63;;;4.20;68.40;;;2.31;66.62;96403.47;4967841;28;20038;-70
2021/04/17 01:35:49;;;;;;;14.25;11.68;;;4.20;68.40;;;2.29;66.30;96401.00;4965366;28;20093;-69
2021/04/17 01:38:18;;;;;;;13.48;11.55;;;4.20;68.30;;;2.29;67.51;96395.81;4949151;28;20039;-69
2021/04/17 01:40:46;;;;;;;13.93;11.82;;;4.20;68.20;;;2.28;67.11;96401.97;4967028;28;20052;-69
2021/04/17 01:43:13;;;;;;;15.07;12.15;;;4.10;68.40;;;2.26;66.96;96396.06;4966503;28;20574;-69
2021/04/17 01:45:39;;;;;;;13.82;11.88;;;4.10;68.50;;;2.25;67.10;96393.59;4950078;28;20043;-69
2021/04/17 01:48:05;;;;;;;14.07;11.63;;;4.10;68.60;;;2.22;67.30;96391.25;4935096;28;20089;-70
2021/04/17 01:50:31;;;;;;;14.52;12.48;;;4.10;68.70;;;2.21;66.85;96387.84;4947780;28;20199;-69
2021/04/17 01:52:57;;;;;;;13.38;11.75;;;4.10;68.80;;;2.17;67.51;96396.84;4961254;28;20074;-69
2021/04/17 01:55:23;;;;;;;13.48;11.75;;;4.10;68.90;;;2.12;66.73;96396.41;4964205;28;20050;-69
2021/04/17 01:57:49;;;;;;;13.80;12.30;;;4.00;69.10;;;2.09;67.24;96389.72;4963425;28;20042;-69
2021/04/17 02:00:15;;;;;;;15.43;12.10;;;4.00;69.00;;;2.10;67.59;96390.53;4947824;28;20047;-68
2021/04/17 02:02:41;;;;;;;13.32;11.93;;;4.00;69.10;;;2.06;67.52;96389.16;4965333;28;20046;-68
2021/04/17 02:05:08;;;;;;;14.52;12.73;;;3.90;69.30;;;2.04;67.34;96391.88;4964623;28;20046;-69
2021/04/17 02:07:33;;;;;;;13.68;12.27;;;3.90;69.50;;;2.01;67.34;96386.09;4965281;28;20046;-69
2021/04/17 02:09:59;;;;;;;14.38;12.57;;;3.90;69.50;;;1.99;67.98;96388.00;4966963;28;20039;-69
2021/04/17 02:12:25;;;;;;;15.27;12.95;;;3.90;69.70;;;1.98;67.86;96381.19;4966203;28;20419;-68
2021/04/17 02:14:50;;;;;;;13.90;12.35;;;3.90;69.80;;;1.98;68.55;96381.19;4966172;28;20057;-69
2021/04/17 02:17:32;;;;;;;15.27;13.07;;;3.80;69.90;;;1.96;69.60;96375.28;4955237;28;20196;-69
2021/04/17 02:20:13;;;;;;;14.15;12.57;;;3.80;69.80;;;1.94;69.80;96377.19;4964656;28;20115;-68
2021/04/17 02:22:40;;;;;;;15.93;12.25;;;3.80;69.90;;;1.92;68.50;96371.31;4949520;28;20043;-69
2021/04/17 02:25:06;;;;;;;14.88;13.27;;;3.80;70.10;;;1.89;68.13;96369.81;4965488;28;20091;-68
2021/04/17 02:27:32;;;;;;;16.73;13.20;;;3.80;70.00;;;1.89;68.74;96366.41;4951588;28;20039;-68
2021/04/17 02:29:58;;;;;;;15.50;13.23;;;3.70;70.10;;;1.87;67.86;96363.94;4948373;28;20030;-68
2021/04/17 02:32:24;;;;;;;16.35;12.35;;;3.80;70.20;;;1.86;68.64;96371.84;4960586;28;20126;-69
2021/04/17 02:34:50;;;;;;;16.00;13.63;;;3.70;70.20;;;1.82;68.41;96366.09;4963278;28;20197;-69
2021/04/17 02:37:15;;;;;;;15.55;13.35;;;3.70;70.30;;;1.80;68.44;96363.59;4961667;28;20075;-68
2021/04/17 02:39:41;;;;;;;15.52;13.63;;;3.70;70.40;;;1.78;67.97;96365.50;4965936;28;20054;-69
2021/04/17 02:42:08;;;;;;;16.83;14.35;;;3.60;70.30;;;1.77;68.43;96358.69;4958706;28;20426;-69
2021/04/17 02:44:34;;;;;;;15.07;13.35;;;3.60;70.50;;;1.74;69.00;96358.13;4962278;28;20042;-69
2021/04/17 02:47:00;;;;;;;15.50;13.65;;;3.60;70.50;;;1.72;69.20;96363.44;4964670;28;20043;-70
2021/04/17 02:49:26;;;;;;;15.75;14.05;;;3.60;70.60;;;1.70;68.68;96356.75;4965407;28;20093;-70
2021/04/17 02:51:52;;;;;;;15.70;13.60;;;3.60;70.90;;;1.67;69.01;96359.59;4957900;28;20039;-67
2021/04/17 02:54:17;;;;;;;16.50;14.30;;;3.50;71.10;;;1.62;69.75;96362.56;4956965;28;20526;-68
2021/04/17 02:56:43;;;;;;;15.45;13.75;;;3.50;71.20;;;1.62;69.68;96362.56;4959562;28;20038;-66
2021/04/17 02:59:09;;;;;;;14.95;13.45;;;3.50;71.20;;;1.62;69.67;96365.16;4960014;28;20446;-70
2021/04/17 03:01:35;;;;;;;15.20;13.57;;;3.50;71.30;;;1.63;69.65;96355.63;4930761;28;20046;-67
2021/04/17 03:04:01;;;;;;;15.95;14.02;;;3.50;71.40;;;1.61;69.92;96363.53;4947528;28;20046;-65
2021/04/17 03:06:26;;;;;;;16.90;13.68;;;3.50;71.30;;;1.60;69.51;96361.88;4965808;28;20062;-65
2021/04/17 03:08:52;;;;;;;14.93;12.75;;;3.50;71.60;;;1.59;70.13;96360.25;4946071;28;20112;-66
2021/04/17 03:11:18;;;;;;;16.40;14.23;;;3.50;71.50;;;1.60;69.25;96364.47;4964026;28;20049;-69
2021/04/17 03:13:44;;;;;;;16.75;13.82;;;3.50;71.50;;;1.59;70.05;96357.66;4961907;28;20045;-69
2021/04/17 03:16:10;;;;;;;15.45;13.68;;;3.50;71.70;;;1.59;70.32;96360.25;4966673;28;20046;-69
2021/04/17 03:18:35;;;;;;;18.30;14.18;;;3.50;71.70;;;1.60;70.16;96356.69;4948532;28;20118;-69
2021/04/17 03:21:02;;;;;;;16.92;13.93;;;3.50;71.70;;;1.56;69.67;96355.28;4963328;28;20506;-70
2021/04/17 03:23:27;;;;;;;17.35;15.10;;;3.50;72.00;;;1.56;70.57;96357.88;4968122;28;20569;-70
2021/04/17 03:25:53;;;;;;;18.25;15.20;;;3.50;72.10;;;1.57;70.16;96361.28;4968054;28;20178;-69
2021/04/17 03:28:19;;;;;;;17.02;14.95;;;3.50;72.00;;;1.59;70.31;96349.03;4965432;28;20035;-70
2021/04/17 03:30:45;;;;;;;19.30;15.02;;;3.50;72.00;;;1.61;70.56;96349.75;4965438;28;20146;-70
2021/04/17 03:33:10;;;;;;;18.48;15.30;;;3.60;72.10;;;1.64;70.91;96346.88;4968116;28;20533;-70
2021/04/17 03:35:36;;;;;;;22.65;18.20;;;3.60;72.10;;;1.65;70.86;96338.97;4966816;28;20047;-69
2021/04/17 03:38:03;;;;;;;26.23;22.23;;;3.60;72.20;;;1.63;70.46;96333.09;4949470;28;20737;-69
2021/04/17 03:40:29;;;;;;;31.52;25.90;;;3.60;72.10;;;1.62;71.26;96341.81;4960282;28;20035;-69
2021/04/17 03:42:55;;;;;;;23.40;20.88;;;3.60;71.90;;;1.62;71.29;96339.22;4952779;28;20549;-69
2021/04/17 03:45:20;;;;;;;33.97;27.65;;;3.70;71.90;;;1.67;71.63;96342.25;4958402;28;20134;-70
2021/04/17 03:47:46;;;;;;;21.40;17.48;;;3.70;73.30;;;1.68;70.71;96341.31;4971442;28;20039;-69
2021/04/17 03:50:13;;;;;;;26.67;22.20;;;3.70;71.70;;;1.66;71.30;96339.78;4966959;28;20158;-69
2021/04/17 03:52:39;;;;;;;18.52;16.52;;;3.60;72.10;;;1.65;70.41;96343.34;4951891;28;20050;-69
2021/04/17 03:55:07;;;;;;;19.23;15.95;;;3.60;71.90;;;1.62;70.37;96339.22;4955338;28;20045;-69
2021/04/17 03:57:34;;;;;;;22.85;16.45;;;3.50;72.00;;;1.59;70.60;96334.31;4970888;28;20664;-69
2021/04/17 03:59:59;;;;;;;20.92;17.30;;;3.50;72.30;;;1.57;70.90;96341.38;4969644;28;20118;-69
2021/04/17 04:02:25;;;;;;;23.13;19.90;;;3.50;72.10;;;1.56;70.88;96363.06;4960036;28;20501;-70
2021/04/17 04:04:51;;;;;;;21.27;18.08;;;3.50;72.20;;;1.55;70.42;96345.84;4971078;28;20053;-69
2021/04/17 04:07:17;;;;;;;17.88;15.45;;;3.50;72.20;;;1.54;71.09;96357.19;4969916;28;20129;-69
2021/04/17 04:09:42;;;;;;;19.25;15.48;;;3.50;72.10;;;1.54;70.81;96357.19;4971344;28;20135;-70
2021/04/17 04:12:09;;;;;;;18.08;15.48;;;3.50;72.20;;;1.54;70.49;96367.56;4961148;28;20042;-70
2021/04/17 04:14:34;;;;;;;19.98;16.67;;;3.40;72.40;;;1.52;71.05;96362.50;4957884;28;20113;-66
2021/04/17 04:17:01;;;;;;;20.30;16.38;;;3.40;72.50;;;1.51;71.34;96362.63;4968012;28;20051;-64
2021/04/17 04:19:27;;;;;;;21.70;17.80;;;3.50;72.60;;;1.46;70.78;96360.41;4969943;28;20038;-66
2021/04/17 04:21:53;;;;;;;20.00;16.92;;;3.30;73.00;;;1.44;71.76;96364.09;4955819;28;20039;-66
2021/04/17 04:24:18;;;;;;;20.35;17.33;;;3.30;73.00;;;1.44;71.20;96369.25;4951571;28;20046;-65
2021/04/17 04:26:44;;;;;;;25.42;17.48;;;3.40;73.10;;;1.43;71.42;96371.03;4963397;28;20031;-65
2021/04/17 04:29:10;;;;;;;20.40;16.95;;;3.30;73.50;;;1.45;71.53;96373.50;4971151;28;20049;-65
2021/04/17 04:31:35;;;;;;;19.58;16.77;;;3.30;73.50;;;1.45;71.69;96379.50;4959957;28;20607;-65
2021/04/17 04:34:02;;;;;;;20.67;16.42;;;3.30;73.70;;;1.46;71.65;96370.78;4951609;28;20511;-69
2021/04/17 04:36:28;;;;;;;20.48;17.50;;;3.30;73.60;;;1.45;71.97;96369.13;4961381;28;20041;-66
2021/04/17 04:38:53;;;;;;;21.85;17.15;;;3.40;73.70;;;1.47;72.05;96371.59;4970962;28;20445;-68
2021/04/17 04:41:19;;;;;;;22.25;16.88;;;3.40;73.60;;;1.49;72.05;96364.53;4970935;28;20617;-69
2021/04/17 04:43:45;;;;;;;22.55;16.85;;;3.50;73.40;;;1.51;72.52;96358.25;4971429;28;20367;-69
2021/04/17 04:46:11;;;;;;;20.13;16.60;;;3.60;73.30;;;1.57;72.19;96363.88;4970590;28;20049;-69
2021/04/17 04:48:36;;;;;;;19.08;16.30;;;3.60;73.00;;;1.57;71.69;96362.09;4970348;28;20042;-69
2021/04/17 04:51:02;;;;;;;18.38;15.88;;;3.60;72.90;;;1.61;71.92;96362.69;4970358;28;20133;-69
2021/04/17 04:53:28;;;;;;;18.95;16.10;;;3.70;72.60;;;1.64;72.08;96367.63;4969474;28;20085;-69
2021/04/17 04:55:53;;;;;;;20.20;16.42;;;3.70;72.70;;;1.66;72.41;96374.31;4971330;28;20038;-69
2021/04/17 04:58:19;;;;;;;19.95;17.10;;;3.80;72.50;;;1.70;72.33;96357.56;4970173;28;20518;-69
2021/04/17 05:00:45;;;;;;;19.65;17.20;;;3.70;72.90;;;1.73;72.37;96361.66;4970930;28;20042;-68
2021/04/17 05:03:11;;;;;;;21.55;18.02;;;3.80;72.80;;;1.75;71.82;96373.56;4970403;28;20066;-69
2021/04/17 05:05:36;;;;;;;19.42;16.67;;;3.80;72.60;;;1.79;71.59;96374.09;4970512;28;20565;-69
2021/04/17 05:08:03;;;;;;;20.33;16.67;;;3.90;72.30;;;1.86;72.69;96366.66;4970315;28;20034;-70
2021/04/17 05:10:28;;;;;;;19.17;16.83;;;4.00;72.60;;;1.91;72.38;96374.88;4970037;28;20043;-69
2021/04/17 05:12:55;;;;;;;20.20;17.00;;;4.00;72.70;;;1.93;72.31;96372.97;4970174;28;20090;-69
2021/04/17 05:15:20;;;;;;;22.02;17.08;;;4.00;72.70;;;1.96;71.93;96377.91;4970206;28;20035;-69
2021/04/17 05:17:46;;;;;;;18.95;16.70;;;4.10;72.30;;;2.01;72.08;96383.50;4970432;28;20154;-69
2021/04/17 05:20:12;;;;;;;26.27;17.83;;;4.10;72.30;;;2.04;71.80;96375.50;4970416;28;20035;-69
2021/04/17 05:22:38;;;;;;;21.17;18.17;;;4.10;72.50;;;2.08;72.10;96385.47;4967832;28;20038;-69
2021/04/17 05:25:04;;;;;;;23.20;18.35;;;4.10;72.50;;;2.09;72.89;96374.16;4969835;28;20035;-69
2021/04/17 05:27:30;;;;;;;21.83;19.02;;;4.10;72.70;;;2.12;72.50;96378.25;4969762;28;20150;-69
2021/04/17 05:29:56;;;;;;;25.70;18.17;;;4.10;72.50;;;2.17;71.89;96376.09;4970240;28;20035;-69
2021/04/17 05:32:22;;;;;;;22.35;18.50;;;4.30;72.30;;;2.19;72.51;96384.56;4969499;28;20213;-69
2021/04/17 05:34:47;;;;;;;23.08;18.92;;;4.20;72.90;;;2.23;71.69;96385.94;4970211;28;20054;-69
2021/04/17 05:37:13;;;;;;;23.13;18.80;;;4.30;72.70;;;2.28;72.72;96378.59;4969734;28;20035;-69
2021/04/17 05:39:39;;;;;;;23.55;19.40;;;4.40;72.60;;;2.30;72.46;96381.88;4969778;28;20118;-69
2021/04/17 05:42:05;;;;;;;24.50;19.85;;;4.40;72.70;;;2.36;71.79;96380.53;4969631;28;20042;-68
2021/04/17 05:44:31;;;;;;;23.00;19.90;;;4.50;72.70;;;2.42;72.29;96375.63;4968978;28;20145;-69
2021/04/17 05:46:57;;;;;;;24.40;19.75;;;4.60;72.90;;;2.47;72.17;96378.63;4984749;28;20058;-69
2021/04/17 05:49:22;;;;;;;27.25;21.08;;;4.60;73.00;;;2.52;72.50;96393.03;4969518;28;20030;-69
2021/04/17 05:51:48;;;;;;;27.70;20.35;;;4.60;73.40;;;2.55;72.55;96379.78;4969158;28;20031;-69
2021/04/17 05:54:14;;;;;;;24.80;20.23;;;4.70;72.90;;;2.58;72.16;96379.50;4969463;28;20085;-69
2021/04/17 05:56:40;;;;;;;38.63;28.40;;;4.70;73.10;;;2.62;72.80;96378.28;4969133;28;20093;-69
2021/04/17 05:59:06;;;;;;;57.05;44.70;;;4.80;73.80;;;2.70;73.24;96384.44;4970044;28;20031;-69
2021/04/17 06:01:32;;;;;;;25.83;21.52;;;4.90;74.30;;;2.73;73.58;96388.56;4969348;28;20538;-69
2021/04/17 06:03:57;;;;;;;24.60;20.52;;;4.80;73.30;;;2.74;73.41;96382.44;4969007;28;20039;-69
2021/04/17 06:06:23;;;;;;;25.80;20.50;;;4.80;73.50;;;2.73;72.72;96385.97;4968587;28;20105;-69
2021/04/17 06:08:49;;;;;;;23.92;19.25;;;4.80;73.00;;;2.75;73.66;96386.66;4969714;28;20050;-70
2021/04/17 06:11:15;;;;;;;23.88;19.10;;;4.80;73.70;;;2.78;73.44;96394.19;4969628;28;20471;-69
2021/04/17 06:13:40;;;;;;;24.73;20.15;;;4.90;73.50;;;2.81;73.17;96391.31;4969087;28;20448;-69
2021/04/17 06:16:07;;;;;;;25.38;20.40;;;5.00;73.70;;;2.84;72.99;96390.22;4969103;28;20118;-69
2021/04/17 06:18:33;;;;;;;24.60;20.35;;;4.90;73.70;;;2.89;73.47;96391.47;4968732;28;20030;-69
2021/04/17 06:20:58;;;;;;;26.23;21.05;;;5.10;73.10;;;2.94;73.44;96386.69;4968016;28;20085;-69
2021/04/17 06:23:24;;;;;;;25.17;20.33;;;5.10;73.40;;;2.98;73.71;96393.28;4968176;28;20118;-69
2021/04/17 06:25:50;;;;;;;24.80;20.33;;;5.10;73.30;;;3.01;72.88;96397.38;4964870;28;20039;-68
2021/04/17 06:28:17;;;;;;;27.23;22.95;;;5.20;73.30;;;3.03;73.34;96398.06;4966033;28;20039;-68
2021/04/17 06:30:42;;;;;;;30.20;23.88;;;5.20;73.50;;;3.07;73.03;96400.25;4967111;28;20035;-69
2021/04/17 06:33:09;;;;;;;28.42;24.05;;;5.30;73.60;;;3.14;73.74;96400.50;4969013;28;20411;-69
2021/04/17 06:35:36;;;;;;;26.65;21.55;;;5.40;72.90;;;3.17;73.78;96404.63;4966945;28;20112;-70
2021/04/17 06:38:02;;;;;;;31.52;25.02;;;5.30;72.80;;;3.21;73.63;96400.81;4960886;28;20593;-65
2021/04/17 06:40:28;;;;;;;31.52;25.05;;;5.50;72.50;;;3.27;73.80;96403.69;4962922;28;20034;-65
2021/04/17 06:42:54;;;;;;;33.25;25.55;;;5.40;73.00;;;3.33;73.13;96391.91;4960150;28;20562;-65
2021/04/17 06:45:21;;;;;;;25.52;21.88;;;5.60;72.80;;;3.41;73.77;96393.84;4944730;28;20112;-64
2021/04/17 06:47:47;;;;;;;25.60;20.92;;;5.60;72.50;;;3.45;73.37;96390.81;4967747;28;20682;-65
2021/04/17 06:50:13;;;;;;;26.15;21.35;;;5.60;72.60;;;3.48;72.96;96389.72;4946424;28;20043;-65
2021/04/17 06:52:40;;;;;;;25.30;20.83;;;5.70;71.90;;;3.50;72.84;96391.22;4953747;28;20062;-66
2021/04/17 06:55:07;;;;;;;26.75;21.15;;;5.70;71.80;;;3.53;72.57;96401.34;4960940;28;20039;-66
2021/04/17 06:57:33;;;;;;;24.05;20.17;;;5.70;72.20;;;3.57;72.82;96394.91;4964587;28;20092;-65
2021/04/17 07:00:01;;;;;;;24.80;20.33;;;5.70;72.40;;;3.62;73.01;96395.34;4958082;28;20130;-66
2021/04/17 07:02:27;;;;;;;23.70;19.67;;;5.90;72.80;;;3.64;72.55;96390.81;4951812;28;20062;-64
2021/04/17 07:04:52;;;;;;;26.95;20.85;;;5.80;71.80;;;3.66;72.97;96394.09;4957021;28;20035;-65
2021/04/17 07:07:18;;;;;;;26.35;20.38;;;5.80;72.10;;;3.69;72.21;96386.00;4939075;28;20046;-63
2021/04/17 07:09:44;;;;;;;34.63;26.08;;;5.90;71.60;;;3.75;72.66;96389.81;4959556;28;20229;-64
2021/04/17 07:12:10;;;;;;;42.33;32.92;;;6.00;72.40;;;3.79;72.90;96388.59;4967119;28;20050;-70
2021/04/17 07:14:47;;;;;;;26.48;21.20;;;6.10;71.80;;;3.86;73.19;96394.06;4963948;28;20118;-70
2021/04/17 07:17:12;;;;;;;24.15;19.58;;;6.10;71.60;;;3.90;72.64;96385.84;4967670;28;20089;-65
2021/04/17 07:19:55;;;;;;;25.70;20.55;;;6.10;71.30;;;3.93;73.31;96382.94;4965647;28;20046;-65
2021/04/17 07:22:28;;;;;;;25.33;20.13;;;6.10;71.70;;;4.04;73.50;96386.34;4948431;28;20468;-71
2021/04/17 07:25:15;;;;;;;26.08;20.33;;;6.30;72.40;;;4.14;73.40;96376.72;4947636;28;20042;-71
2021/04/17 07:27:43;;;;;;;24.90;18.58;;;6.50;70.80;;;4.21;72.34;96383.00;4949854;28;20035;-71
2021/04/17 07:30:29;;;;;;;27.70;21.27;;;6.60;70.90;;;4.29;73.22;96380.50;4954375;28;20043;-70
2021/04/17 07:33:06;;;;;;;33.30;25.67;;;6.60;70.70;;;4.41;73.27;96378.53;4949159;28;20027;-70
2021/04/17 07:35:42;;;;;;;26.20;20.92;;;6.90;70.70;;;4.52;72.82;96386.16;4968006;28;20039;-70
2021/04/17 07:38:10;;;;;;;26.20;20.50;;;6.90;69.90;;;4.64;71.98;96387.59;4953848;28;20043;-71
2021/04/17 07:40:36;;;;;;;25.15;20.30;;;7.10;68.90;;;4.76;71.60;96389.06;4967667;28;20533;-70
2021/04/17 07:43:02;;;;;;;25.10;19.83;;;7.20;68.80;;;4.90;71.31;96390.34;4967170;28;20043;-68
2021/04/17 07:45:36;;;;;;;25.85;19.08;;;7.30;68.80;;;5.01;71.19;96391.94;4963603;28;20059;-66
2021/04/17 07:48:22;;;;;;;24.70;19.23;;;7.50;68.10;;;5.16;71.80;96390.44;4966118;28;20593;-68
2021/04/17 07:50:48;;;;;;;22.83;17.02;;;7.70;68.00;;;5.30;71.46;96392.53;4951178;28;20669;-67
2021/04/17 07:53:28;;;;;;;23.65;17.35;;;7.90;67.00;;;5.48;69.86;96389.94;4968261;28;20038;-68
2021/04/17 07:55:54;;;;;;;27.25;19.30;;;8.10;65.80;;;5.58;70.69;96385.44;4968386;28;20502;-67
2021/04/17 07:58:20;;;;;;;27.85;20.27;;;8.10;65.10;;;5.67;70.16;96378.53;4966238;28;20049;-67
2021/04/17 08:00:47;;;;;;;25.00;18.67;;;8.30;64.90;;;5.79;69.27;96379.91;4945924;28;20035;-70
2021/04/17 08:03:13;;;;;;;16.73;13.30;;;8.40;64.10;;;5.85;69.13;96380.09;4931556;29;20058;-73
2021/04/17 08:05:39;;;;;;;19.48;14.25;;;8.40;61.60;;;5.93;68.03;96374.16;4949676;28;20078;-72
2021/04/17 08:08:05;;;;;;;19.70;14.77;;;8.60;62.00;;;6.06;68.87;96374.56;4949351;28;20114;-72
2021/04/17 08:10:31;;;;;;;25.80;17.63;;;8.70;62.90;;;6.13;67.91;96373.00;4967663;28;20577;-75
2021/04/17 08:12:59;;;;;;;24.63;18.33;;;8.60;61.20;;;6.27;68.36;96374.19;4961081;28;20039;-74
2021/04/17 08:15:25;;;;;;;17.33;13.10;;;8.80;62.20;;;6.38;67.22;96363.47;4965901;28;20039;-70
2021/04/17 08:17:53;;;;;;;20.15;13.35;;;8.80;60.50;;;6.41;66.59;96375.41;4966846;28;20038;-70
2021/04/17 08:20:19;;;;;;;17.60;12.73;;;8.90;59.60;;;6.51;67.05;96372.66;4966778;28;20531;-67
2021/04/17 08:22:48;;;;;;;16.17;12.38;;;9.10;59.50;;;6.60;65.80;96364.72;4963607;28;20042;-72
2021/04/17 08:25:14;;;;;;;16.20;12.15;;;9.30;59.60;;;6.75;65.46;96367.53;4960258;28;20042;-73
2021/04/17 08:27:39;;;;;;;17.77;12.50;;;9.50;58.20;;;6.86;65.89;96369.88;4966048;28;20545;-70
2021/04/17 08:30:08;;;;;;;19.38;12.18;;;9.50;57.50;;;6.93;64.52;96365.63;4938447;28;20038;-68
2021/04/17 08:32:35;;;;;;;18.17;12.60;;;9.40;56.30;;;6.98;63.54;96365.97;4956356;28;20046;-68
2021/04/17 08:35:12;;;;;;;16.77;11.40;;;9.50;56.40;;;7.05;63.30;96366.16;4967174;28;20498;-66
2021/04/17 08:37:56;;;;;;;13.85;10.52;;;9.60;56.40;;;7.12;62.86;96359.31;4970585;28;20134;-66
2021/04/17 08:40:37;;;;;;;13.10;8.95;;;9.70;57.00;;;7.20;61.60;96358.47;4965992;28;20070;-67
2021/04/17 08:43:18;;;;;;;12.98;9.32;;;9.80;55.40;;;7.28;61.33;96356.72;4969425;28;20074;-70
2021/04/17 08:46:13;;;;;;;11.98;8.82;;;9.90;54.30;;;7.40;61.12;96356.38;4959419;28;20047;-68
2021/04/17 08:48:55;;;;;;;13.05;8.43;;;10.10;53.80;;;7.42;60.05;96362.28;4966102;28;20049;-64
2021/04/17 08:51:21;;;;;;;12.75;9.40;;;10.00;52.90;;;7.45;61.66;96362.75;4968038;28;20122;-65
2021/04/17 08:53:50;;;;;;;14.02;9.45;;;9.80;52.70;;;7.43;60.73;96358.66;4954595;28;20190;-64
2021/04/17 08:56:16;;;;;;;12.80;8.18;;;10.00;53.30;;;7.46;60.66;96353.09;4969019;28;20122;-64
2021/04/17 08:59:02;;;;;;;13.35;9.27;;;10.10;51.60;;;7.54;61.42;96350.50;4970547;28;20122;-62
2021/04/17 09:01:28;;;;;;;12.63;9.65;;;10.30;51.80;;;7.69;60.88;96354.09;4947420;28;20043;-63
2021/04/17 09:03:54;;;;;;;12.80;9.20;;;10.60;51.40;;;7.91;60.73;96348.16;4961182;28;20132;-64
2021/04/17 09:06:25;;;;;;;14.38;10.00;;;11.00;50.00;;;8.17;58.34;96347.97;4935613;28;20042;-65
2021/04/17 09:09:16;;;;;;;14.23;9.73;;;11.60;48.00;;;8.55;56.08;96349.00;4970827;28;20110;-65
2021/04/17 09:11:45;;;;;;;14.80;9.73;;;12.00;46.80;;;8.88;57.94;96351.50;4965993;28;20650;-65
2021/04/17 09:14:26;;;;;;;12.00;8.65;;;12.40;46.90;;;9.18;55.16;96337.53;4957031;28;20443;-63
2021/04/17 09:16:58;;;;;;;15.23;10.75;;;12.50;44.70;;;9.38;55.68;96344.97;4965355;28;20398;-67
2021/04/17 09:19:44;;;;;;;15.48;10.35;;;12.60;45.10;;;9.48;53.97;96333.22;4958779;28;20570;-66
2021/04/17 09:22:28;;;;;;;17.00;12.63;;;12.10;45.50;;;9.50;55.09;96335.66;4957149;28;20070;-66
2021/04/17 09:25:01;;;;;;;14.45;10.70;;;12.10;48.10;;;9.52;55.94;96341.59;4969771;28;20062;-66
2021/04/17 09:27:28;;;;;;;13.20;10.38;;;12.10;46.50;;;9.43;56.26;96335.56;4951277;28;20122;-66
2021/04/17 09:30:18;;;;;;;14.13;10.88;;;11.80;47.10;;;9.43;53.96;96334.75;4951895;28;20036;-66
2021/04/17 09:32:53;;;;;;;16.35;10.30;;;12.00;46.90;;;9.45;54.98;96332.75;4952211;28;20027;-66
2021/04/17 09:35:24;;;;;;;15.07;10.10;;;12.30;46.30;;;9.64;54.20;96337.53;4969040;28;20042;-66
2021/04/17 09:38:14;;;;;;;15.48;10.60;;;12.60;45.30;;;9.82;54.47;96319.63;4958333;28;20046;-66
2021/04/17 09:40:46;;;;;;;14.23;10.18;;;12.90;45.50;;;9.89;53.00;96322.34;4969460;28;20609;-66
2021/04/17 09:43:29;;;;;;;12.50;9.65;;;12.80;43.70;;;9.93;52.96;96328.06;4950766;28;20047;-67
2021/04/17 09:46:00;;;;;;;13.43;9.40;;;12.70;44.80;;;9.97;53.87;96324.94;4952699;28;20043;-67
2021/04/17 09:48:26;;;;;;;;;;;12.60;44.20;;;10.03;52.12;96318.94;4969331;28;20038;-66
2021/04/17 09:50:56;;;;;;;12.80;9.57;;;12.70;44.60;;;10.10;54.93;96317.22;4968799;28;19918;-67
2021/04/17 09:53:29;;;;;;;13.35;9.57;;;12.80;43.40;;;10.11;54.08;96316.22;4968282;28;20038;-67
2021/04/17 09:56:01;;;;;;;14.98;10.38;;;12.90;42.90;;;10.29;51.81;96315.91;4955689;28;20050;-69
2021/04/17 09:58:36;;;;;;;12.32;9.57;;;13.90;41.30;;;10.62;51.52;96308.44;4965064;28;20805;-67
2021/04/17 10:01:15;;;;;;;12.50;9.68;;;14.40;41.10;;;11.00;49.00;96314.34;4957789;28;20038;-65
2021/04/17 10:03:43;;;;;;;12.82;9.15;;;15.00;38.90;;;11.42;52.00;96296.94;4964536;28;20039;-64
2021/04/17 10:06:34;;;;;;;13.30;9.43;;;16.00;36.00;;;12.06;48.74;96294.22;4969252;28;20081;-64
2021/04/17 10:09:20;;;;;;;12.15;9.63;;;17.20;34.40;;;12.76;46.60;96294.97;4965969;28;20042;-65
2021/04/17 10:11:46;;;;;;;12.23;9.32;;;17.60;33.90;;;13.01;50.29;96289.97;4966839;28;20480;-68
2021/04/17 10:14:13;;;;;;;12.60;9.55;;;17.20;33.90;;;12.95;49.42;96288.13;4969226;28;20043;-67
2021/04/17 10:16:46;;;;;;;13.48;9.00;;;16.50;35.40;;;12.76;46.43;96289.69;4967604;28;20037;-68
2021/04/17 10:19:17;;;;;;;11.27;8.18;;;15.80;35.20;;;12.50;46.79;96283.31;4963619;28;20618;-65
2021/04/17 10:21:47;;;;;;;10.57;8.60;;;15.00;36.70;;;12.16;48.20;96284.13;4931446;28;20433;-65
2021/04/17 10:24:32;;;;;;;9.88;8.23;;;14.00;39.30;;;11.79;44.69;96279.22;4967199;28;20037;-64
2021/04/17 10:27:07;;;;;;;11.25;8.75;;;13.60;39.50;;;11.58;47.18;96272.97;4966159;28;20074;-66